createdAt,value
2023-03-15T00:01:16.451Z,90.66
2023-03-15T00:03:43.763Z,91.55
2023-03-15T00:06:11.017Z,91.24
2023-03-15T00:08:37.826Z,91.60
2023-03-15T00:11:04.565Z,91.49
2023-03-15T00:13:31.324Z,91.83
2023-03-15T00:16:00.314Z,91.59
2023-03-15T00:18:27.877Z,91.81
2023-03-15T00:20:54.927Z,92.24
2023-03-15T00:23:21.370Z,91.45
2023-03-15T00:25:49.845Z,90.74
2023-03-15T00:28:16.613Z,91.20
2023-03-15T00:30:43.654Z,91.31
2023-03-15T00:33:13.709Z,90.71
2023-03-15T00:35:43.348Z,91.23
2023-03-15T00:38:10.239Z,91.39
2023-03-15T00:40:38.044Z,91.16
2023-03-15T00:43:04.465Z,91.25
2023-03-15T00:45:30.945Z,91.58
2023-03-15T00:47:57.429Z,90.93
2023-03-15T00:50:24.129Z,91.18
2023-03-15T00:52:50.513Z,90.12
2023-03-15T00:55:19.225Z,90.07
2023-03-15T00:57:46.957Z,91.31
2023-03-15T01:00:16.582Z,90.88
2023-03-15T01:02:43.082Z,91.05
2023-03-15T01:05:10.174Z,90.46
2023-03-15T01:07:36.736Z,91.14
2023-03-15T01:10:05.375Z,91.33
2023-03-15T01:12:33.186Z,90.43
2023-03-15T01:15:01.352Z,90.96
2023-03-15T01:17:27.910Z,90.51
2023-03-15T01:19:54.459Z,90.28
2023-03-15T01:22:21.409Z,90.48
2023-03-15T01:24:47.901Z,90.85
2023-03-15T01:27:14.389Z,90.58
2023-03-15T01:29:40.781Z,91.43
2023-03-15T01:32:07.548Z,92.05
2023-03-15T01:34:34.815Z,91.43
2023-03-15T01:37:02.809Z,91.67
2023-03-15T01:39:30.693Z,91.22
2023-03-15T01:41:57.737Z,91.53
2023-03-15T01:44:24.321Z,91.56
2023-03-15T01:46:50.950Z,91.28
2023-03-15T01:49:33.455Z,91.41
2023-03-15T01:52:04.091Z,91.11
2023-03-15T01:54:39.461Z,91.81
2023-03-15T01:57:05.836Z,92.41
2023-03-15T01:59:38.941Z,91.80
2023-03-15T02:02:06.399Z,91.35
2023-03-15T02:04:41.084Z,91.53
2023-03-15T02:07:09.727Z,92.47
2023-03-15T02:09:44.503Z,92.45
2023-03-15T02:12:12.103Z,91.79
2023-03-15T02:14:39.785Z,91.50
2023-03-15T02:17:06.516Z,91.98
2023-03-15T02:19:45.866Z,92.15
2023-03-15T02:22:40.753Z,91.40
2023-03-15T02:25:11.490Z,91.55
2023-03-15T02:27:39.801Z,91.18
2023-03-15T02:30:07.575Z,91.25
2023-03-15T02:32:34.563Z,91.94
2023-03-15T02:35:01.130Z,91.42
2023-03-15T02:37:27.936Z,91.87
2023-03-15T02:39:54.369Z,91.27
2023-03-15T02:42:21.061Z,91.34
2023-03-15T02:44:48.968Z,91.21
2023-03-15T02:47:27.251Z,90.83
2023-03-15T02:49:54.060Z,92.06
2023-03-15T02:52:22.176Z,92.28
2023-03-15T02:54:49.353Z,91.93
2023-03-15T02:57:18.561Z,91.11
2023-03-15T02:59:45.176Z,91.69
2023-03-15T03:02:12.345Z,92.78
2023-03-15T03:04:39.818Z,92.61
2023-03-15T03:07:06.262Z,93.34
2023-03-15T03:09:32.894Z,92.20
2023-03-15T03:11:59.316Z,92.66
2023-03-15T03:14:25.786Z,93.14
2023-03-15T03:16:52.479Z,92.86
2023-03-15T03:19:19.132Z,92.65
2023-03-15T03:21:45.612Z,93.61
2023-03-15T03:24:16.178Z,93.11
2023-03-15T03:26:46.128Z,93.81
2023-03-15T03:29:16.624Z,94.60
2023-03-15T03:31:44.190Z,93.74
2023-03-15T03:34:12.164Z,93.39
2023-03-15T03:36:38.636Z,93.50
2023-03-15T03:39:05.182Z,94.94
2023-03-15T03:41:31.642Z,94.77
2023-03-15T03:43:58.090Z,93.25
2023-03-15T03:46:24.554Z,94.56
2023-03-15T03:48:51.070Z,93.45
2023-03-15T03:51:17.479Z,93.39
2023-03-15T03:53:43.935Z,94.78
2023-03-15T03:56:10.693Z,94.59
2023-03-15T03:58:37.073Z,94.30
2023-03-15T04:01:03.996Z,94.68
2023-03-15T04:03:31.119Z,94.80
2023-03-15T04:05:59.305Z,93.97
2023-03-15T04:08:26.874Z,95.00
2023-03-15T04:10:55.462Z,94.91
2023-03-15T04:13:23.780Z,94.63
2023-03-15T04:15:51.295Z,94.50
2023-03-15T04:18:18.477Z,94.25
2023-03-15T04:20:47.163Z,93.71
2023-03-15T04:23:14.829Z,93.24
2023-03-15T04:25:41.879Z,93.07
2023-03-15T04:28:10.701Z,93.69
2023-03-15T04:30:37.822Z,94.66
2023-03-15T04:33:05.504Z,94.22
2023-03-15T04:35:35.904Z,93.87
2023-03-15T04:38:03.977Z,94.27
2023-03-15T04:40:34.898Z,93.98
2023-03-15T04:43:03.649Z,93.99
2023-03-15T04:45:34.166Z,93.83
2023-03-15T04:48:01.724Z,94.01
2023-03-15T04:50:29.835Z,93.57
2023-03-15T04:52:59.571Z,93.64
2023-03-15T04:55:26.502Z,94.41
2023-03-15T04:57:53.045Z,93.80
2023-03-15T05:00:19.563Z,93.61
2023-03-15T05:02:51.997Z,93.69
2023-03-15T05:05:18.591Z,92.71
2023-03-15T05:07:44.966Z,92.91
2023-03-15T05:10:11.790Z,92.35
2023-03-15T05:12:38.194Z,92.74
2023-03-15T05:15:05.185Z,93.09
2023-03-15T05:17:33.542Z,92.26
2023-03-15T05:20:07.998Z,92.54
2023-03-15T05:22:34.554Z,91.77
2023-03-15T05:25:00.902Z,91.98
2023-03-15T05:27:28.303Z,91.41
2023-03-15T05:29:54.737Z,91.94
2023-03-15T05:32:26.572Z,92.88
2023-03-15T05:34:54.678Z,92.97
2023-03-15T05:37:25.324Z,92.77
2023-03-15T05:39:51.863Z,92.21
2023-03-15T05:42:25.150Z,91.99
2023-03-15T05:44:55.985Z,92.46
2023-03-15T05:47:23.242Z,92.92
2023-03-15T05:49:50.604Z,91.57
2023-03-15T05:52:17.042Z,93.01
2023-03-15T05:54:43.689Z,92.69
2023-03-15T05:57:10.345Z,92.09
2023-03-15T05:59:38.005Z,90.95
2023-03-15T06:02:04.642Z,92.17
2023-03-15T06:04:31.123Z,91.20
2023-03-15T06:06:57.723Z,91.55
2023-03-15T06:09:24.137Z,91.73
2023-03-15T06:11:50.929Z,92.89
2023-03-15T06:14:17.561Z,91.33
2023-03-15T06:16:44.029Z,91.52
2023-03-15T06:19:10.441Z,91.91
2023-03-15T06:21:36.855Z,91.71
2023-03-15T06:24:03.307Z,90.30
2023-03-15T06:26:29.756Z,88.64
2023-03-15T06:28:56.126Z,89.35
2023-03-15T06:31:22.552Z,89.26
2023-03-15T06:33:50.170Z,85.96
2023-03-15T06:36:16.540Z,84.48
2023-03-15T06:38:42.979Z,85.28
2023-03-15T06:41:09.461Z,85.44
2023-03-15T06:43:35.858Z,85.94
2023-03-15T06:46:02.760Z,84.78
2023-03-15T06:48:29.459Z,85.43
2023-03-15T06:50:55.894Z,85.63
2023-03-15T06:53:22.551Z,85.95
2023-03-15T06:55:50.627Z,85.33
2023-03-15T06:58:17.261Z,85.98
2023-03-15T07:00:44.420Z,85.90
2023-03-15T07:03:10.846Z,85.64
2023-03-15T07:05:37.423Z,84.46
2023-03-15T07:08:04.486Z,82.77
2023-03-15T07:10:31.046Z,84.56
2023-03-15T07:12:57.792Z,84.84
2023-03-15T07:15:24.170Z,84.68
2023-03-15T07:17:50.527Z,84.66
2023-03-15T07:20:17.161Z,85.35
2023-03-15T07:22:45.517Z,83.69
2023-03-15T07:25:12.011Z,85.43
2023-03-15T07:27:38.389Z,84.84
2023-03-15T07:30:07.238Z,82.71
2023-03-15T07:32:33.781Z,82.14
2023-03-15T07:35:00.703Z,83.04
2023-03-15T07:37:30.536Z,84.08
2023-03-15T07:39:58.517Z,84.38
2023-03-15T07:42:24.910Z,85.13
2023-03-15T07:44:51.363Z,85.80
2023-03-15T07:47:17.785Z,85.38
2023-03-15T07:49:44.271Z,86.35
2023-03-15T07:52:10.905Z,84.37
2023-03-15T07:54:37.430Z,83.44
2023-03-15T07:57:04.118Z,81.93
2023-03-15T07:59:30.869Z,80.82
2023-03-15T08:01:57.313Z,80.14
2023-03-15T08:04:23.702Z,79.60
2023-03-15T08:06:51.377Z,81.36
2023-03-15T08:09:17.912Z,80.82
2023-03-15T08:11:45.318Z,80.46
2023-03-15T08:14:12.332Z,82.25
2023-03-15T08:16:38.774Z,81.78
2023-03-15T08:19:05.625Z,82.25
2023-03-15T08:21:33.707Z,81.38
2023-03-15T08:24:00.905Z,80.11
2023-03-15T08:26:27.465Z,79.59
2023-03-15T08:28:53.936Z,78.86
2023-03-15T08:31:21.311Z,79.08
2023-03-15T08:33:48.507Z,79.31
2023-03-15T08:36:15.089Z,80.01
2023-03-15T08:38:42.126Z,79.93
2023-03-15T08:41:08.607Z,77.53
2023-03-15T08:43:35.137Z,80.23
2023-03-15T08:46:02.092Z,77.56
2023-03-15T08:48:29.261Z,74.63
2023-03-15T08:50:57.341Z,76.44
2023-03-15T08:53:23.807Z,74.35
2023-03-15T08:55:50.549Z,74.76
2023-03-15T08:58:17.044Z,73.84
2023-03-15T09:00:43.528Z,74.45
2023-03-15T09:03:10.065Z,74.16
2023-03-15T09:05:37.057Z,73.05
2023-03-15T09:08:04.235Z,70.83
2023-03-15T09:10:30.815Z,67.05
2023-03-15T09:12:57.351Z,66.23
2023-03-15T09:15:23.987Z,65.24
2023-03-15T09:17:54.101Z,62.37
2023-03-15T09:20:22.747Z,60.70
2023-03-15T09:22:57.015Z,61.35
2023-03-15T09:25:24.801Z,61.55
2023-03-15T09:27:51.742Z,60.34
2023-03-15T09:30:18.785Z,58.75
2023-03-15T09:32:45.916Z,59.62
2023-03-15T09:35:18.326Z,60.38
2023-03-15T09:37:45.583Z,58.47
2023-03-15T09:40:15.521Z,57.94
2023-03-15T09:43:29.219Z,55.69
2023-03-15T09:45:55.616Z,57.02
2023-03-15T09:48:33.453Z,56.65
2023-03-15T09:51:36.337Z,54.84
2023-03-15T09:54:19.093Z,56.15
2023-03-15T09:57:04.305Z,56.88
2023-03-15T09:59:39.860Z,57.11
2023-03-15T10:02:33.196Z,57.74
2023-03-15T10:05:16.338Z,56.79
2023-03-15T10:07:42.775Z,55.90
2023-03-15T10:10:17.416Z,54.91
2023-03-15T10:12:51.518Z,54.53
2023-03-15T10:15:22.917Z,54.07
2023-03-15T10:17:58.295Z,56.74
2023-03-15T10:20:34.179Z,57.82
2023-03-15T10:23:10.117Z,57.33
2023-03-15T10:25:37.596Z,58.54
2023-03-15T10:28:21.773Z,57.69
2023-03-15T10:30:50.244Z,58.08
2023-03-15T10:33:33.788Z,57.40
2023-03-15T10:36:11.023Z,56.49
2023-03-15T10:38:39.007Z,56.01
2023-03-15T10:41:06.692Z,57.01
2023-03-15T10:43:39.690Z,54.58
2023-03-15T10:46:13.470Z,53.60
2023-03-15T10:48:51.958Z,52.88
2023-03-15T10:51:33.675Z,54.75
2023-03-15T10:54:26.682Z,50.91
2023-03-15T10:56:59.296Z,49.24
2023-03-15T10:59:28.581Z,49.81
2023-03-15T11:02:16.820Z,48.83
2023-03-15T11:04:47.241Z,49.12
2023-03-15T11:07:13.994Z,50.16
2023-03-15T11:09:40.740Z,47.30
2023-03-15T11:12:18.899Z,48.65
2023-03-15T11:14:48.667Z,49.61
2023-03-15T11:17:18.690Z,51.80
2023-03-15T11:20:19.204Z,51.41
2023-03-15T11:22:45.570Z,49.99
2023-03-15T11:25:14.437Z,51.05
2023-03-15T11:27:43.325Z,51.31
2023-03-15T11:30:15.193Z,51.11
2023-03-15T11:32:43.782Z,50.77
2023-03-15T11:35:16.054Z,50.97
2023-03-15T11:37:48.806Z,51.02
2023-03-15T11:40:48.021Z,52.36
2023-03-15T11:43:23.077Z,52.26
2023-03-15T11:45:58.835Z,53.33
2023-03-15T11:48:40.811Z,52.64
2023-03-15T11:51:10.428Z,54.21
2023-03-15T11:53:59.550Z,53.64
2023-03-15T11:56:47.910Z,52.94
2023-03-15T11:59:19.416Z,51.97
2023-03-15T12:02:05.887Z,52.67
2023-03-15T12:04:32.327Z,48.41
2023-03-15T12:07:03.361Z,50.62
2023-03-15T12:09:32.694Z,49.31
2023-03-15T12:12:20.480Z,49.54
2023-03-15T12:14:46.937Z,49.24
2023-03-15T12:17:28.205Z,48.44
2023-03-15T12:20:09.250Z,48.22
2023-03-15T12:22:38.192Z,50.28
2023-03-15T12:25:29.982Z,49.50
2023-03-15T12:27:58.266Z,47.31
2023-03-15T12:30:32.138Z,46.62
2023-03-15T12:32:59.669Z,46.37
2023-03-15T12:35:33.551Z,46.91
2023-03-15T12:38:01.647Z,48.15
2023-03-15T12:40:27.974Z,50.01
2023-03-15T12:42:54.420Z,48.67
2023-03-15T12:45:41.252Z,48.40
2023-03-15T12:48:12.782Z,50.09
2023-03-15T12:50:45.686Z,50.74
2023-03-15T12:53:39.794Z,51.21
2023-03-15T12:56:34.920Z,52.91
2023-03-15T12:59:17.638Z,55.49
2023-03-15T13:01:45.330Z,56.30
2023-03-15T13:04:13.227Z,57.55
2023-03-15T13:06:57.224Z,57.29
2023-03-15T13:09:49.854Z,58.06
2023-03-15T13:12:26.765Z,58.11
2023-03-15T13:14:56.391Z,58.64
2023-03-15T13:17:47.740Z,58.62
2023-03-15T13:20:27.029Z,59.59
2023-03-15T13:23:12.360Z,60.52
2023-03-15T13:25:50.770Z,59.79
2023-03-15T13:28:27.243Z,60.72
2023-03-15T13:30:55.483Z,60.71
2023-03-15T13:33:31.422Z,61.41
2023-03-15T13:36:04.232Z,62.23
2023-03-15T13:38:30.874Z,60.83
2023-03-15T13:40:59.348Z,62.18
2023-03-15T13:43:29.231Z,62.23
2023-03-15T13:45:58.197Z,61.81
2023-03-15T13:48:27.194Z,63.54
2023-03-15T13:50:54.456Z,63.43
2023-03-15T13:53:39.562Z,63.94
2023-03-15T13:56:17.995Z,65.32
2023-03-15T13:58:45.391Z,65.61
2023-03-15T14:01:14.215Z,67.51
2023-03-15T14:03:43.650Z,69.33
2023-03-15T14:06:21.804Z,71.67
2023-03-15T14:08:49.714Z,72.87
2023-03-15T14:11:34.775Z,72.67
2023-03-15T14:14:03.283Z,71.46
2023-03-15T14:17:01.059Z,71.58
2023-03-15T14:19:32.254Z,70.17
2023-03-15T14:22:01.912Z,70.74
2023-03-15T14:24:36.903Z,71.13
2023-03-15T14:27:17.657Z,69.54
2023-03-15T14:29:56.912Z,70.41
2023-03-15T14:32:30.303Z,70.36
2023-03-15T14:35:01.401Z,71.35
2023-03-15T14:37:34.745Z,72.04
2023-03-15T14:40:05.285Z,72.32
2023-03-15T14:42:31.603Z,72.28
2023-03-15T14:44:57.940Z,70.20
2023-03-15T14:47:24.368Z,71.38
2023-03-15T14:49:50.815Z,69.26
2023-03-15T14:52:17.398Z,69.60
2023-03-15T14:54:48.196Z,70.93
2023-03-15T14:57:14.649Z,70.54
2023-03-15T14:59:41.096Z,70.88
2023-03-15T15:02:15.745Z,69.77
2023-03-15T15:04:43.799Z,70.34
2023-03-15T15:07:13.180Z,70.46
2023-03-15T15:09:43.203Z,70.22
2023-03-15T15:12:11.281Z,69.99
2023-03-15T15:14:37.948Z,68.44
2023-03-15T15:17:04.370Z,68.13
2023-03-15T15:19:30.858Z,67.72
2023-03-15T15:21:57.576Z,68.12
2023-03-15T15:24:26.340Z,68.56
2023-03-15T15:26:53.295Z,69.29
2023-03-15T15:29:20.145Z,67.88
2023-03-15T15:31:46.576Z,67.97
2023-03-15T15:34:13.333Z,67.73
2023-03-15T15:36:42.326Z,68.82
2023-03-15T15:39:22.420Z,69.20
2023-03-15T15:41:49.626Z,68.08
2023-03-15T15:44:19.177Z,68.57
2023-03-15T15:46:45.720Z,69.12
2023-03-15T15:49:12.530Z,68.83
2023-03-15T15:51:45.430Z,69.08
2023-03-15T15:54:17.805Z,69.29
2023-03-15T15:57:02.656Z,71.51
2023-03-15T15:59:30.690Z,70.54
2023-03-15T16:02:02.471Z,70.15
2023-03-15T16:04:30.139Z,70.17
2023-03-15T16:07:02.343Z,71.46
2023-03-15T16:09:31.985Z,71.24
2023-03-15T16:11:58.678Z,72.39
2023-03-15T16:14:25.318Z,72.47
2023-03-15T16:16:51.889Z,72.49
2023-03-15T16:19:22.750Z,72.74
2023-03-15T16:21:51.933Z,73.79
2023-03-15T16:24:26.202Z,74.30
2023-03-15T16:27:00.045Z,75.69
2023-03-15T16:29:35.348Z,76.41
2023-03-15T16:32:16.542Z,77.26
2023-03-15T16:34:45.539Z,78.30
2023-03-15T16:37:15.018Z,77.10
2023-03-15T16:39:50.610Z,78.20
2023-03-15T16:42:19.193Z,77.93
2023-03-15T16:44:46.775Z,77.81
2023-03-15T16:47:14.256Z,77.58
2023-03-15T16:49:40.673Z,77.21
2023-03-15T16:52:11.087Z,78.08
2023-03-15T16:54:41.447Z,77.44
2023-03-15T16:57:18.931Z,77.56
2023-03-15T16:59:45.360Z,77.90
2023-03-15T17:02:18.666Z,77.81
2023-03-15T17:04:45.822Z,77.71
2023-03-15T17:07:14.398Z,78.15
2023-03-15T17:09:46.843Z,77.95
2023-03-15T17:12:25.066Z,78.29
2023-03-15T17:14:54.149Z,78.17
2023-03-15T17:17:20.795Z,78.84
2023-03-15T17:19:48.201Z,79.45
2023-03-15T17:22:16.870Z,78.88
2023-03-15T17:24:44.802Z,79.65
2023-03-15T17:27:36.576Z,79.02
2023-03-15T17:30:14.268Z,79.76
2023-03-15T17:32:41.406Z,80.54
2023-03-15T17:35:08.512Z,80.35
2023-03-15T17:37:36.131Z,80.47
2023-03-15T17:40:10.251Z,79.83
2023-03-15T17:42:36.731Z,80.44
2023-03-15T17:45:04.706Z,80.89
2023-03-15T17:47:32.379Z,80.55
2023-03-15T17:49:58.833Z,80.25
2023-03-15T17:52:27.700Z,80.39
2023-03-15T17:54:54.214Z,80.58
2023-03-15T17:57:20.565Z,81.19
2023-03-15T17:59:47.012Z,81.36
2023-03-15T18:02:16.321Z,81.43
2023-03-15T18:04:42.978Z,81.73
2023-03-15T18:07:09.556Z,82.13
2023-03-15T18:09:36.017Z,81.51
2023-03-15T18:12:02.568Z,82.00
2023-03-15T18:14:30.859Z,82.03
2023-03-15T18:16:57.434Z,81.55
2023-03-15T18:19:24.028Z,82.85
2023-03-15T18:21:50.476Z,82.17
2023-03-15T18:24:17.024Z,82.31
2023-03-15T18:26:43.473Z,83.30
2023-03-15T18:29:09.987Z,82.32
2023-03-15T18:31:36.544Z,83.07
2023-03-15T18:34:03.489Z,82.74
2023-03-15T18:36:30.125Z,82.71
2023-03-15T18:38:56.518Z,83.08
2023-03-15T18:41:24.824Z,83.32
2023-03-15T18:43:51.956Z,82.73
2023-03-15T18:46:26.831Z,83.57
2023-03-15T18:48:54.074Z,83.91
2023-03-15T18:51:22.949Z,83.75
2023-03-15T18:53:49.797Z,84.49
2023-03-15T18:56:21.766Z,84.42
2023-03-15T18:58:49.177Z,85.26
2023-03-15T19:01:16.825Z,86.31
2023-03-15T19:03:43.619Z,87.17
2023-03-15T19:06:12.275Z,87.28
2023-03-15T19:08:38.785Z,87.44
2023-03-15T19:11:08.437Z,87.23
2023-03-15T19:13:35.234Z,87.04
2023-03-15T19:16:02.454Z,87.27
2023-03-15T19:18:32.101Z,87.36
2023-03-15T19:20:58.718Z,87.17
2023-03-15T19:23:25.262Z,87.01
2023-03-15T19:25:51.797Z,86.27
2023-03-15T19:28:18.551Z,87.52
2023-03-15T19:30:46.173Z,87.78
2023-03-15T19:33:12.767Z,87.63
2023-03-15T19:35:39.341Z,87.54
2023-03-15T19:38:05.949Z,87.27
2023-03-15T19:40:32.691Z,86.91
2023-03-15T19:42:59.245Z,86.94
2023-03-15T19:45:26.180Z,87.56
2023-03-15T19:47:52.721Z,87.91
2023-03-15T19:50:19.570Z,87.34
2023-03-15T19:52:46.301Z,87.98
2023-03-15T19:55:16.136Z,87.42
2023-03-15T19:57:43.201Z,87.90
2023-03-15T20:00:12.514Z,88.18
2023-03-15T20:02:41.181Z,89.24
2023-03-15T20:05:08.854Z,88.22
2023-03-15T20:07:36.464Z,89.25
2023-03-15T20:10:04.833Z,89.52
2023-03-15T20:12:32.440Z,88.75
2023-03-15T20:14:58.959Z,87.76
2023-03-15T20:17:26.866Z,89.79
2023-03-15T20:19:53.314Z,90.17
2023-03-15T20:22:19.970Z,88.14
2023-03-15T20:24:46.727Z,87.88
2023-03-15T20:27:15.559Z,88.19
2023-03-15T20:29:42.041Z,88.24
2023-03-15T20:32:08.580Z,88.73
2023-03-15T20:34:35.394Z,88.57
2023-03-15T20:37:02.185Z,89.99
2023-03-15T20:39:28.731Z,89.01
2023-03-15T20:41:55.255Z,88.82
2023-03-15T20:44:21.802Z,88.65
2023-03-15T20:46:48.383Z,89.61
2023-03-15T20:49:17.493Z,89.78
2023-03-15T20:51:43.937Z,88.93
2023-03-15T20:54:10.326Z,88.55
2023-03-15T20:56:38.804Z,88.37
2023-03-15T20:59:06.375Z,89.15
2023-03-15T21:01:34.361Z,90.01
2023-03-15T21:04:01.000Z,88.24
2023-03-15T21:06:27.527Z,88.58
2023-03-15T21:08:54.094Z,88.49
2023-03-15T21:11:20.825Z,89.05
2023-03-15T21:13:48.514Z,88.48
2023-03-15T21:16:15.048Z,89.09
2023-03-15T21:18:45.025Z,88.08
2023-03-15T21:21:13.852Z,88.49
2023-03-15T21:23:41.932Z,89.13
2023-03-15T21:26:13.490Z,88.51
2023-03-15T21:28:42.072Z,87.48
2023-03-15T21:31:09.470Z,87.74
2023-03-15T21:33:36.117Z,88.12
2023-03-15T21:36:04.750Z,89.22
2023-03-15T21:38:34.108Z,87.81
2023-03-15T21:41:01.123Z,87.83
2023-03-15T21:43:32.982Z,88.37
2023-03-15T21:46:05.955Z,87.19
2023-03-15T21:48:37.440Z,87.39
2023-03-15T21:51:06.218Z,88.95
2023-03-15T21:53:34.066Z,90.17
2023-03-15T21:56:01.650Z,88.58
2023-03-15T21:58:29.113Z,88.57
2023-03-15T22:00:58.540Z,89.22
2023-03-15T22:03:26.044Z,90.37
2023-03-15T22:05:52.564Z,90.02
2023-03-15T22:08:20.079Z,90.11
2023-03-15T22:10:48.148Z,90.20
2023-03-15T22:13:14.802Z,89.52
2023-03-15T22:15:42.014Z,90.43
2023-03-15T22:18:08.703Z,90.14
2023-03-15T22:20:35.441Z,90.58
2023-03-15T22:23:04.271Z,90.99
2023-03-15T22:25:34.164Z,90.81
2023-03-15T22:28:01.876Z,90.82
2023-03-15T22:30:29.372Z,90.73
2023-03-15T22:32:55.953Z,90.59
2023-03-15T22:35:22.746Z,90.03
2023-03-15T22:37:49.463Z,90.82
2023-03-15T22:40:16.216Z,90.93
2023-03-15T22:42:44.012Z,90.34
2023-03-15T22:45:10.740Z,89.17
2023-03-15T22:47:39.331Z,91.31
2023-03-15T22:50:06.243Z,91.01
2023-03-15T22:52:32.676Z,91.01
2023-03-15T22:54:59.120Z,91.16
2023-03-15T22:57:25.571Z,91.66
2023-03-15T22:59:52.040Z,91.29
2023-03-15T23:02:18.537Z,91.58
2023-03-15T23:04:46.859Z,90.86
2023-03-15T23:07:13.693Z,91.67
2023-03-15T23:09:40.227Z,91.45
2023-03-15T23:12:07.201Z,91.18
2023-03-15T23:14:33.897Z,90.89
2023-03-15T23:17:04.356Z,90.46
2023-03-15T23:19:35.037Z,90.47
2023-03-15T23:22:06.446Z,90.94
2023-03-15T23:24:35.763Z,91.50
2023-03-15T23:27:05.469Z,91.85
2023-03-15T23:29:40.637Z,91.45
2023-03-15T23:32:13.653Z,91.64
2023-03-15T23:34:42.935Z,91.53
2023-03-15T23:37:10.414Z,91.22
2023-03-15T23:39:37.093Z,91.38
2023-03-15T23:42:04.861Z,91.65
2023-03-15T23:44:32.736Z,91.81
2023-03-15T23:47:00.015Z,91.33
2023-03-15T23:49:26.692Z,91.04
2023-03-15T23:51:54.333Z,90.34
2023-03-15T23:54:22.203Z,91.48
2023-03-15T23:56:48.594Z,90.51
2023-03-15T23:59:15.000Z,90.24
